sensor_id;sensor_type;location;lat;lon;timestamp;P1;durP1;ratioP1;P2;durP2;ratioP2
38621;SDS011;24380;51.132;5.360;2023-04-08T00:01:49;22.67;;;10.00;;
38621;SDS011;24380;51.132;5.360;2023-04-08T00:04:16;28.15;;;10.95;;
38621;SDS011;24380;51.132;5.360;2023-04-08T00:06:45;17.80;;;9.03;;
38621;SDS011;24380;51.132;5.360;2023-04-08T00:09:12;20.65;;;9.63;;
38621;SDS011;24380;51.132;5.360;2023-04-08T00:11:40;20.25;;;9.83;;
38621;SDS011;24380;51.132;5.360;2023-04-08T00:14:07;21.62;;;10.25;;
38621;SDS011;24380;51.132;5.360;2023-04-08T00:16:35;20.40;;;10.08;;
38621;SDS011;24380;51.132;5.360;2023-04-08T00:19:03;25.92;;;10.15;;
38621;SDS011;24380;51.132;5.360;2023-04-08T00:21:31;22.32;;;10.25;;
38621;SDS011;24380;51.132;5.360;2023-04-08T00:23:59;22.35;;;10.63;;
38621;SDS011;24380;51.132;5.360;2023-04-08T00:26:26;28.20;;;11.53;;
38621;SDS011;24380;51.132;5.360;2023-04-08T00:28:54;19.07;;;10.48;;
38621;SDS011;24380;51.132;5.360;2023-04-08T00:31:21;21.02;;;10.18;;
38621;SDS011;24380;51.132;5.360;2023-04-08T00:33:49;21.35;;;9.90;;
38621;SDS011;24380;51.132;5.360;2023-04-08T00:36:16;26.80;;;11.00;;
38621;SDS011;24380;51.132;5.360;2023-04-08T00:38:44;18.20;;;10.45;;
38621;SDS011;24380;51.132;5.360;2023-04-08T00:41:12;22.32;;;9.93;;
38621;SDS011;24380;51.132;5.360;2023-04-08T00:43:39;20.55;;;10.13;;
38621;SDS011;24380;51.132;5.360;2023-04-08T00:46:07;22.62;;;10.80;;
38621;SDS011;24380;51.132;5.360;2023-04-08T00:48:35;23.27;;;10.15;;
38621;SDS011;24380;51.132;5.360;2023-04-08T00:51:03;22.42;;;10.63;;
38621;SDS011;24380;51.132;5.360;2023-04-08T00:53:31;25.30;;;11.28;;
38621;SDS011;24380;51.132;5.360;2023-04-08T00:55:59;22.80;;;11.22;;
38621;SDS011;24380;51.132;5.360;2023-04-08T00:58:27;22.40;;;11.28;;
38621;SDS011;24380;51.132;5.360;2023-04-08T01:00:59;17.45;;;10.88;;
38621;SDS011;24380;51.132;5.360;2023-04-08T01:08:53;29.98;;;14.20;;
38621;SDS011;24380;51.132;5.360;2023-04-08T01:11:22;29.80;;;12.18;;
38621;SDS011;24380;51.132;5.360;2023-04-08T01:13:52;21.65;;;11.83;;
38621;SDS011;24380;51.132;5.360;2023-04-08T01:16:21;17.48;;;10.82;;
38621;SDS011;24380;51.132;5.360;2023-04-08T01:18:51;23.70;;;11.48;;
38621;SDS011;24380;51.132;5.360;2023-04-08T01:21:21;26.75;;;11.60;;
38621;SDS011;24380;51.132;5.360;2023-04-08T01:24:00;22.90;;;10.98;;
38621;SDS011;24380;51.132;5.360;2023-04-08T01:26:29;18.95;;;10.65;;
38621;SDS011;24380;51.132;5.360;2023-04-08T01:28:58;23.45;;;11.00;;
38621;SDS011;24380;51.132;5.360;2023-04-08T01:31:27;24.12;;;10.88;;
38621;SDS011;24380;51.132;5.360;2023-04-08T01:33:56;18.80;;;11.20;;
38621;SDS011;24380;51.132;5.360;2023-04-08T01:36:27;23.30;;;11.08;;
38621;SDS011;24380;51.132;5.360;2023-04-08T01:38:58;21.10;;;11.45;;
38621;SDS011;24380;51.132;5.360;2023-04-08T01:41:27;24.30;;;10.88;;
38621;SDS011;24380;51.132;5.360;2023-04-08T01:43:56;21.87;;;10.65;;
38621;SDS011;24380;51.132;5.360;2023-04-08T01:46:25;22.70;;;10.85;;
38621;SDS011;24380;51.132;5.360;2023-04-08T01:48:54;22.33;;;11.10;;
38621;SDS011;24380;51.132;5.360;2023-04-08T01:51:24;25.50;;;11.05;;
38621;SDS011;24380;51.132;5.360;2023-04-08T01:53:53;20.10;;;11.28;;
38621;SDS011;24380;51.132;5.360;2023-04-08T01:56:20;19.87;;;10.88;;
38621;SDS011;24380;51.132;5.360;2023-04-08T01:58:49;22.37;;;10.88;;
38621;SDS011;24380;51.132;5.360;2023-04-08T02:01:20;19.85;;;10.85;;
38621;SDS011;24380;51.132;5.360;2023-04-08T02:03:49;19.40;;;10.90;;
38621;SDS011;24380;51.132;5.360;2023-04-08T02:06:20;20.08;;;11.00;;
38621;SDS011;24380;51.132;5.360;2023-04-08T02:08:48;18.37;;;11.30;;
38621;SDS011;24380;51.132;5.360;2023-04-08T02:11:16;18.77;;;12.05;;
38621;SDS011;24380;51.132;5.360;2023-04-08T02:13:43;21.87;;;11.68;;
38621;SDS011;24380;51.132;5.360;2023-04-08T02:16:29;21.70;;;12.43;;
38621;SDS011;24380;51.132;5.360;2023-04-08T02:19:01;22.48;;;11.33;;
38621;SDS011;24380;51.132;5.360;2023-04-08T02:21:35;21.73;;;12.33;;
38621;SDS011;24380;51.132;5.360;2023-04-08T02:24:04;25.27;;;11.43;;
38621;SDS011;24380;51.132;5.360;2023-04-08T02:26:34;23.25;;;11.28;;
38621;SDS011;24380;51.132;5.360;2023-04-08T02:29:02;19.60;;;11.63;;
38621;SDS011;24380;51.132;5.360;2023-04-08T02:31:31;22.85;;;11.95;;
38621;SDS011;24380;51.132;5.360;2023-04-08T02:34:00;31.17;;;12.50;;
38621;SDS011;24380;51.132;5.360;2023-04-08T02:36:28;27.42;;;12.30;;
38621;SDS011;24380;51.132;5.360;2023-04-08T02:38:59;24.77;;;12.25;;
38621;SDS011;24380;51.132;5.360;2023-04-08T02:41:29;22.52;;;11.55;;
38621;SDS011;24380;51.132;5.360;2023-04-08T02:43:57;22.65;;;12.13;;
38621;SDS011;24380;51.132;5.360;2023-04-08T02:46:24;24.95;;;12.05;;
38621;SDS011;24380;51.132;5.360;2023-04-08T02:48:52;23.00;;;11.75;;
38621;SDS011;24380;51.132;5.360;2023-04-08T02:51:19;31.77;;;13.03;;
38621;SDS011;24380;51.132;5.360;2023-04-08T02:53:47;21.40;;;12.50;;
38621;SDS011;24380;51.132;5.360;2023-04-08T02:56:14;27.75;;;12.23;;
38621;SDS011;24380;51.132;5.360;2023-04-08T02:58:42;26.55;;;12.75;;
38621;SDS011;24380;51.132;5.360;2023-04-08T03:01:10;24.40;;;12.55;;
38621;SDS011;24380;51.132;5.360;2023-04-08T03:03:38;23.05;;;12.93;;
38621;SDS011;24380;51.132;5.360;2023-04-08T03:06:05;23.85;;;12.40;;
38621;SDS011;24380;51.132;5.360;2023-04-08T03:08:33;24.87;;;12.95;;
38621;SDS011;24380;51.132;5.360;2023-04-08T03:11:00;25.10;;;12.82;;
38621;SDS011;24380;51.132;5.360;2023-04-08T03:13:28;25.85;;;13.08;;
38621;SDS011;24380;51.132;5.360;2023-04-08T03:15:56;28.92;;;12.70;;
38621;SDS011;24380;51.132;5.360;2023-04-08T03:18:24;23.65;;;12.53;;
38621;SDS011;24380;51.132;5.360;2023-04-08T03:20:51;26.35;;;13.22;;
38621;SDS011;24380;51.132;5.360;2023-04-08T03:23:19;24.32;;;12.68;;
38621;SDS011;24380;51.132;5.360;2023-04-08T03:25:46;26.90;;;13.85;;
38621;SDS011;24380;51.132;5.360;2023-04-08T03:28:14;27.93;;;13.55;;
38621;SDS011;24380;51.132;5.360;2023-04-08T03:30:41;28.40;;;13.80;;
38621;SDS011;24380;51.132;5.360;2023-04-08T03:33:09;31.23;;;14.30;;
38621;SDS011;24380;51.132;5.360;2023-04-08T03:35:36;22.07;;;13.43;;
38621;SDS011;24380;51.132;5.360;2023-04-08T03:38:04;23.32;;;14.23;;
38621;SDS011;24380;51.132;5.360;2023-04-08T03:40:32;30.37;;;13.72;;
38621;SDS011;24380;51.132;5.360;2023-04-08T03:42:59;30.45;;;14.85;;
38621;SDS011;24380;51.132;5.360;2023-04-08T03:45:27;26.62;;;14.65;;
38621;SDS011;24380;51.132;5.360;2023-04-08T03:47:54;26.70;;;14.28;;
38621;SDS011;24380;51.132;5.360;2023-04-08T03:50:22;32.70;;;14.63;;
38621;SDS011;24380;51.132;5.360;2023-04-08T03:52:49;25.45;;;13.93;;
38621;SDS011;24380;51.132;5.360;2023-04-08T03:55:17;26.90;;;14.60;;
38621;SDS011;24380;51.132;5.360;2023-04-08T03:57:44;28.77;;;14.60;;
38621;SDS011;24380;51.132;5.360;2023-04-08T04:00:12;32.40;;;14.95;;
38621;SDS011;24380;51.132;5.360;2023-04-08T04:02:40;26.97;;;14.03;;
38621;SDS011;24380;51.132;5.360;2023-04-08T04:05:07;26.87;;;14.78;;
38621;SDS011;24380;51.132;5.360;2023-04-08T04:07:35;26.82;;;14.47;;
38621;SDS011;24380;51.132;5.360;2023-04-08T04:10:03;27.45;;;14.50;;
38621;SDS011;24380;51.132;5.360;2023-04-08T04:12:31;28.65;;;13.65;;
38621;SDS011;24380;51.132;5.360;2023-04-08T04:14:58;22.30;;;14.10;;
38621;SDS011;24380;51.132;5.360;2023-04-08T04:17:26;32.50;;;13.90;;
38621;SDS011;24380;51.132;5.360;2023-04-08T04:19:53;29.72;;;15.00;;
38621;SDS011;24380;51.132;5.360;2023-04-08T04:22:21;30.12;;;14.20;;
38621;SDS011;24380;51.132;5.360;2023-04-08T04:24:48;25.05;;;13.88;;
38621;SDS011;24380;51.132;5.360;2023-04-08T04:27:16;23.35;;;14.05;;
38621;SDS011;24380;51.132;5.360;2023-04-08T04:29:43;28.77;;;15.48;;
38621;SDS011;24380;51.132;5.360;2023-04-08T04:32:11;31.85;;;13.78;;
38621;SDS011;24380;51.132;5.360;2023-04-08T04:34:38;26.00;;;13.68;;
38621;SDS011;24380;51.132;5.360;2023-04-08T04:37:06;25.57;;;13.68;;
38621;SDS011;24380;51.132;5.360;2023-04-08T04:39:34;25.70;;;13.55;;
38621;SDS011;24380;51.132;5.360;2023-04-08T04:42:01;31.20;;;14.15;;
38621;SDS011;24380;51.132;5.360;2023-04-08T04:44:29;26.37;;;14.03;;
38621;SDS011;24380;51.132;5.360;2023-04-08T04:46:56;30.20;;;14.55;;
38621;SDS011;24380;51.132;5.360;2023-04-08T04:49:24;29.20;;;14.30;;
38621;SDS011;24380;51.132;5.360;2023-04-08T04:51:51;27.70;;;14.55;;
38621;SDS011;24380;51.132;5.360;2023-04-08T04:54:19;27.35;;;14.40;;
38621;SDS011;24380;51.132;5.360;2023-04-08T04:56:46;30.45;;;14.28;;
38621;SDS011;24380;51.132;5.360;2023-04-08T04:59:14;31.48;;;14.80;;
38621;SDS011;24380;51.132;5.360;2023-04-08T05:01:41;30.25;;;15.83;;
38621;SDS011;24380;51.132;5.360;2023-04-08T05:04:09;33.67;;;17.65;;
38621;SDS011;24380;51.132;5.360;2023-04-08T05:06:36;26.82;;;15.65;;
38621;SDS011;24380;51.132;5.360;2023-04-08T05:09:04;35.33;;;16.12;;
38621;SDS011;24380;51.132;5.360;2023-04-08T05:11:31;31.15;;;16.42;;
38621;SDS011;24380;51.132;5.360;2023-04-08T05:13:59;35.75;;;17.45;;
38621;SDS011;24380;51.132;5.360;2023-04-08T05:16:26;37.23;;;17.77;;
38621;SDS011;24380;51.132;5.360;2023-04-08T05:18:54;37.05;;;18.85;;
38621;SDS011;24380;51.132;5.360;2023-04-08T05:21:21;41.20;;;17.17;;
38621;SDS011;24380;51.132;5.360;2023-04-08T05:23:49;35.55;;;16.73;;
38621;SDS011;24380;51.132;5.360;2023-04-08T05:26:18;38.60;;;18.27;;
38621;SDS011;24380;51.132;5.360;2023-04-08T05:31:16;35.00;;;17.60;;
38621;SDS011;24380;51.132;5.360;2023-04-08T05:33:45;34.38;;;17.98;;
38621;SDS011;24380;51.132;5.360;2023-04-08T05:36:13;31.10;;;17.40;;
38621;SDS011;24380;51.132;5.360;2023-04-08T05:38:41;35.05;;;18.45;;
38621;SDS011;24380;51.132;5.360;2023-04-08T05:41:09;35.85;;;20.35;;
38621;SDS011;24380;51.132;5.360;2023-04-08T05:43:36;47.10;;;23.10;;
38621;SDS011;24380;51.132;5.360;2023-04-08T05:46:07;46.48;;;22.25;;
38621;SDS011;24380;51.132;5.360;2023-04-08T05:48:36;49.55;;;22.73;;
38621;SDS011;24380;51.132;5.360;2023-04-08T05:51:04;46.83;;;22.65;;
38621;SDS011;24380;51.132;5.360;2023-04-08T05:53:31;49.10;;;23.12;;
38621;SDS011;24380;51.132;5.360;2023-04-08T05:55:59;50.63;;;23.75;;
38621;SDS011;24380;51.132;5.360;2023-04-08T05:58:26;48.58;;;24.10;;
38621;SDS011;24380;51.132;5.360;2023-04-08T06:00:54;49.98;;;25.27;;
38621;SDS011;24380;51.132;5.360;2023-04-08T06:03:21;55.23;;;24.45;;
38621;SDS011;24380;51.132;5.360;2023-04-08T06:05:49;49.27;;;25.43;;
38621;SDS011;24380;51.132;5.360;2023-04-08T06:08:16;52.45;;;26.02;;
38621;SDS011;24380;51.132;5.360;2023-04-08T06:10:48;57.13;;;27.32;;
38621;SDS011;24380;51.132;5.360;2023-04-08T06:13:16;53.63;;;25.85;;
38621;SDS011;24380;51.132;5.360;2023-04-08T06:15:45;53.13;;;27.02;;
38621;SDS011;24380;51.132;5.360;2023-04-08T06:18:14;57.78;;;27.48;;
38621;SDS011;24380;51.132;5.360;2023-04-08T06:20:42;61.92;;;29.48;;
38621;SDS011;24380;51.132;5.360;2023-04-08T06:23:10;65.35;;;29.30;;
38621;SDS011;24380;51.132;5.360;2023-04-08T06:25:38;61.37;;;30.08;;
38621;SDS011;24380;51.132;5.360;2023-04-08T06:28:06;67.27;;;29.60;;
38621;SDS011;24380;51.132;5.360;2023-04-08T06:30:34;67.50;;;30.57;;
38621;SDS011;24380;51.132;5.360;2023-04-08T06:33:01;67.65;;;29.75;;
38621;SDS011;24380;51.132;5.360;2023-04-08T06:35:29;71.85;;;31.55;;
38621;SDS011;24380;51.132;5.360;2023-04-08T06:37:56;83.37;;;34.53;;
38621;SDS011;24380;51.132;5.360;2023-04-08T06:40:24;82.92;;;34.80;;
38621;SDS011;24380;51.132;5.360;2023-04-08T06:42:52;90.10;;;35.75;;
38621;SDS011;24380;51.132;5.360;2023-04-08T06:45:19;88.82;;;35.33;;
38621;SDS011;24380;51.132;5.360;2023-04-08T06:47:47;88.62;;;35.55;;
38621;SDS011;24380;51.132;5.360;2023-04-08T06:50:15;86.22;;;35.88;;
38621;SDS011;24380;51.132;5.360;2023-04-08T06:52:43;99.30;;;41.53;;
38621;SDS011;24380;51.132;5.360;2023-04-08T06:55:10;91.35;;;37.85;;
38621;SDS011;24380;51.132;5.360;2023-04-08T06:57:38;86.20;;;36.70;;
38621;SDS011;24380;51.132;5.360;2023-04-08T07:00:06;76.17;;;33.95;;
38621;SDS011;24380;51.132;5.360;2023-04-08T07:02:34;77.95;;;32.23;;
38621;SDS011;24380;51.132;5.360;2023-04-08T07:05:01;65.87;;;30.85;;
38621;SDS011;24380;51.132;5.360;2023-04-08T07:07:29;68.40;;;30.97;;
38621;SDS011;24380;51.132;5.360;2023-04-08T07:09:56;69.60;;;30.92;;
38621;SDS011;24380;51.132;5.360;2023-04-08T07:12:24;64.50;;;29.25;;
38621;SDS011;24380;51.132;5.360;2023-04-08T07:14:51;62.55;;;28.55;;
38621;SDS011;24380;51.132;5.360;2023-04-08T07:17:19;61.10;;;28.95;;
38621;SDS011;24380;51.132;5.360;2023-04-08T07:19:46;62.48;;;29.00;;
38621;SDS011;24380;51.132;5.360;2023-04-08T07:22:14;50.98;;;26.02;;
38621;SDS011;24380;51.132;5.360;2023-04-08T07:24:42;56.77;;;27.60;;
38621;SDS011;24380;51.132;5.360;2023-04-08T07:27:11;58.30;;;28.57;;
38621;SDS011;24380;51.132;5.360;2023-04-08T07:29:38;66.37;;;30.17;;
38621;SDS011;24380;51.132;5.360;2023-04-08T07:32:06;63.02;;;28.60;;
38621;SDS011;24380;51.132;5.360;2023-04-08T07:34:34;66.75;;;28.83;;
38621;SDS011;24380;51.132;5.360;2023-04-08T07:37:02;67.62;;;29.57;;
38621;SDS011;24380;51.132;5.360;2023-04-08T07:39:29;71.82;;;30.75;;
38621;SDS011;24380;51.132;5.360;2023-04-08T07:41:57;72.22;;;30.62;;
38621;SDS011;24380;51.132;5.360;2023-04-08T07:44:24;68.65;;;30.77;;
38621;SDS011;24380;51.132;5.360;2023-04-08T07:46:52;67.80;;;29.98;;
38621;SDS011;24380;51.132;5.360;2023-04-08T07:49:19;73.62;;;31.48;;
38621;SDS011;24380;51.132;5.360;2023-04-08T07:51:47;65.57;;;29.30;;
38621;SDS011;24380;51.132;5.360;2023-04-08T07:54:14;66.25;;;28.95;;
38621;SDS011;24380;51.132;5.360;2023-04-08T07:56:42;62.78;;;28.92;;
38621;SDS011;24380;51.132;5.360;2023-04-08T07:59:10;60.20;;;28.50;;
38621;SDS011;24380;51.132;5.360;2023-04-08T08:01:38;63.35;;;29.37;;
38621;SDS011;24380;51.132;5.360;2023-04-08T08:04:06;65.85;;;28.52;;
38621;SDS011;24380;51.132;5.360;2023-04-08T08:06:33;60.23;;;28.45;;
38621;SDS011;24380;51.132;5.360;2023-04-08T08:09:01;59.80;;;27.32;;
38621;SDS011;24380;51.132;5.360;2023-04-08T08:11:28;56.83;;;28.07;;
38621;SDS011;24380;51.132;5.360;2023-04-08T08:14:02;60.05;;;28.00;;
38621;SDS011;24380;51.132;5.360;2023-04-08T08:16:27;58.85;;;28.47;;
38621;SDS011;24380;51.132;5.360;2023-04-08T08:18:55;63.73;;;27.52;;
38621;SDS011;24380;51.132;5.360;2023-04-08T08:21:23;50.23;;;26.10;;
38621;SDS011;24380;51.132;5.360;2023-04-08T08:23:51;54.75;;;26.00;;
38621;SDS011;24380;51.132;5.360;2023-04-08T08:26:19;60.58;;;27.20;;
38621;SDS011;24380;51.132;5.360;2023-04-08T08:28:47;50.90;;;25.57;;
38621;SDS011;24380;51.132;5.360;2023-04-08T08:31:15;54.40;;;25.63;;
38621;SDS011;24380;51.132;5.360;2023-04-08T08:33:42;48.68;;;23.92;;
38621;SDS011;24380;51.132;5.360;2023-04-08T08:36:11;51.90;;;24.00;;
38621;SDS011;24380;51.132;5.360;2023-04-08T08:38:39;39.48;;;21.33;;
38621;SDS011;24380;51.132;5.360;2023-04-08T08:41:07;37.50;;;19.60;;
38621;SDS011;24380;51.132;5.360;2023-04-08T08:43:34;32.15;;;17.32;;
38621;SDS011;24380;51.132;5.360;2023-04-08T08:46:03;33.30;;;17.55;;
38621;SDS011;24380;51.132;5.360;2023-04-08T08:48:32;32.58;;;18.17;;
38621;SDS011;24380;51.132;5.360;2023-04-08T08:51:01;35.73;;;18.25;;
38621;SDS011;24380;51.132;5.360;2023-04-08T08:53:32;33.20;;;17.60;;
38621;SDS011;24380;51.132;5.360;2023-04-08T08:55:59;33.63;;;16.48;;
38621;SDS011;24380;51.132;5.360;2023-04-08T08:58:27;27.42;;;16.05;;
38621;SDS011;24380;51.132;5.360;2023-04-08T09:00:55;28.67;;;16.55;;
38621;SDS011;24380;51.132;5.360;2023-04-08T09:03:23;29.63;;;16.23;;
38621;SDS011;24380;51.132;5.360;2023-04-08T09:05:55;30.00;;;17.02;;
38621;SDS011;24380;51.132;5.360;2023-04-08T09:08:34;28.15;;;15.70;;
38621;SDS011;24380;51.132;5.360;2023-04-08T09:11:17;29.50;;;17.23;;
38621;SDS011;24380;51.132;5.360;2023-04-08T09:13:46;30.35;;;16.80;;
38621;SDS011;24380;51.132;5.360;2023-04-08T09:16:14;27.77;;;17.42;;
38621;SDS011;24380;51.132;5.360;2023-04-08T09:18:44;26.87;;;14.87;;
38621;SDS011;24380;51.132;5.360;2023-04-08T09:21:14;25.47;;;15.07;;
38621;SDS011;24380;51.132;5.360;2023-04-08T09:23:44;24.70;;;15.50;;
38621;SDS011;24380;51.132;5.360;2023-04-08T09:26:16;28.77;;;15.95;;
38621;SDS011;24380;51.132;5.360;2023-04-08T09:29:03;27.30;;;15.68;;
38621;SDS011;24380;51.132;5.360;2023-04-08T09:31:33;24.72;;;15.68;;
38621;SDS011;24380;51.132;5.360;2023-04-08T09:34:12;25.72;;;15.20;;
38621;SDS011;24380;51.132;5.360;2023-04-08T09:36:45;29.50;;;15.95;;
38621;SDS011;24380;51.132;5.360;2023-04-08T09:39:14;25.17;;;15.32;;
38621;SDS011;24380;51.132;5.360;2023-04-08T09:41:42;25.85;;;14.60;;
38621;SDS011;24380;51.132;5.360;2023-04-08T09:44:10;25.02;;;14.90;;
38621;SDS011;24380;51.132;5.360;2023-04-08T09:52:12;23.07;;;13.93;;
38621;SDS011;24380;51.132;5.360;2023-04-08T09:54:52;22.05;;;14.03;;
38621;SDS011;24380;51.132;5.360;2023-04-08T09:57:24;20.62;;;13.62;;
38621;SDS011;24380;51.132;5.360;2023-04-08T10:00:12;23.65;;;15.18;;
38621;SDS011;24380;51.132;5.360;2023-04-08T10:05:23;25.12;;;16.20;;
38621;SDS011;24380;51.132;5.360;2023-04-08T10:07:51;24.72;;;15.70;;
38621;SDS011;24380;51.132;5.360;2023-04-08T10:10:20;24.10;;;15.13;;
38621;SDS011;24380;51.132;5.360;2023-04-08T10:12:49;23.90;;;14.75;;
38621;SDS011;24380;51.132;5.360;2023-04-08T10:15:24;24.77;;;15.75;;
38621;SDS011;24380;51.132;5.360;2023-04-08T10:17:53;23.30;;;14.87;;
38621;SDS011;24380;51.132;5.360;2023-04-08T10:20:56;24.67;;;16.07;;
38621;SDS011;24380;51.132;5.360;2023-04-08T10:23:02;22.95;;;15.78;;
38621;SDS011;24380;51.132;5.360;2023-04-08T10:25:35;23.70;;;16.00;;
38621;SDS011;24380;51.132;5.360;2023-04-08T10:30:41;23.95;;;15.53;;
38621;SDS011;24380;51.132;5.360;2023-04-08T10:33:11;23.15;;;16.20;;
38621;SDS011;24380;51.132;5.360;2023-04-08T10:38:11;25.23;;;16.00;;
38621;SDS011;24380;51.132;5.360;2023-04-08T10:40:39;24.30;;;16.32;;
38621;SDS011;24380;51.132;5.360;2023-04-08T10:43:08;23.32;;;15.93;;
38621;SDS011;24380;51.132;5.360;2023-04-08T10:45:37;22.65;;;15.58;;
38621;SDS011;24380;51.132;5.360;2023-04-08T10:48:20;23.55;;;16.93;;
38621;SDS011;24380;51.132;5.360;2023-04-08T10:50:54;23.52;;;16.73;;
38621;SDS011;24380;51.132;5.360;2023-04-08T10:53:28;21.73;;;16.00;;
38621;SDS011;24380;51.132;5.360;2023-04-08T10:56:07;23.47;;;16.65;;
38621;SDS011;24380;51.132;5.360;2023-04-08T10:58:48;25.05;;;16.90;;
38621;SDS011;24380;51.132;5.360;2023-04-08T11:01:17;23.40;;;16.40;;
38621;SDS011;24380;51.132;5.360;2023-04-08T11:03:45;26.85;;;17.52;;
38621;SDS011;24380;51.132;5.360;2023-04-08T11:06:12;21.40;;;16.37;;
38621;SDS011;24380;51.132;5.360;2023-04-08T11:08:40;21.80;;;15.68;;
38621;SDS011;24380;51.132;5.360;2023-04-08T11:11:09;22.82;;;16.17;;
38621;SDS011;24380;51.132;5.360;2023-04-08T11:13:41;20.77;;;15.68;;
38621;SDS011;24380;51.132;5.360;2023-04-08T11:16:11;21.62;;;16.02;;
38621;SDS011;24380;51.132;5.360;2023-04-08T11:18:39;18.57;;;14.78;;
38621;SDS011;24380;51.132;5.360;2023-04-08T11:21:10;18.17;;;15.35;;
38621;SDS011;24380;51.132;5.360;2023-04-08T11:23:37;19.62;;;15.40;;
38621;SDS011;24380;51.132;5.360;2023-04-08T11:26:05;19.02;;;14.47;;
38621;SDS011;24380;51.132;5.360;2023-04-08T11:28:33;18.60;;;14.65;;
38621;SDS011;24380;51.132;5.360;2023-04-08T11:31:01;18.25;;;14.45;;
38621;SDS011;24380;51.132;5.360;2023-04-08T11:33:30;18.27;;;15.38;;
38621;SDS011;24380;51.132;5.360;2023-04-08T11:35:59;17.67;;;14.00;;
38621;SDS011;24380;51.132;5.360;2023-04-08T11:38:30;18.07;;;14.87;;
38621;SDS011;24380;51.132;5.360;2023-04-08T11:40:58;17.37;;;15.05;;
38621;SDS011;24380;51.132;5.360;2023-04-08T11:43:26;19.00;;;15.25;;
38621;SDS011;24380;51.132;5.360;2023-04-08T11:45:54;17.95;;;15.00;;
38621;SDS011;24380;51.132;5.360;2023-04-08T11:48:21;18.95;;;14.65;;
38621;SDS011;24380;51.132;5.360;2023-04-08T11:50:49;16.62;;;14.65;;
38621;SDS011;24380;51.132;5.360;2023-04-08T11:53:30;20.20;;;14.53;;
38621;SDS011;24380;51.132;5.360;2023-04-08T11:55:57;17.27;;;14.47;;
38621;SDS011;24380;51.132;5.360;2023-04-08T11:58:26;16.17;;;14.33;;
38621;SDS011;24380;51.132;5.360;2023-04-08T12:00:54;17.57;;;14.63;;
38621;SDS011;24380;51.132;5.360;2023-04-08T12:03:21;15.58;;;13.53;;
38621;SDS011;24380;51.132;5.360;2023-04-08T12:05:49;22.50;;;14.47;;
38621;SDS011;24380;51.132;5.360;2023-04-08T12:08:17;18.70;;;14.87;;
38621;SDS011;24380;51.132;5.360;2023-04-08T12:10:44;18.48;;;15.03;;
38621;SDS011;24380;51.132;5.360;2023-04-08T12:13:12;15.45;;;13.85;;
38621;SDS011;24380;51.132;5.360;2023-04-08T12:15:39;16.45;;;13.60;;
38621;SDS011;24380;51.132;5.360;2023-04-08T12:18:07;17.17;;;14.68;;
38621;SDS011;24380;51.132;5.360;2023-04-08T12:20:34;17.80;;;14.50;;
38621;SDS011;24380;51.132;5.360;2023-04-08T12:23:02;15.75;;;14.07;;
38621;SDS011;24380;51.132;5.360;2023-04-08T12:25:29;16.97;;;13.98;;
38621;SDS011;24380;51.132;5.360;2023-04-08T12:27:57;17.73;;;13.03;;
38621;SDS011;24380;51.132;5.360;2023-04-08T12:30:24;14.28;;;12.70;;
38621;SDS011;24380;51.132;5.360;2023-04-08T12:32:52;13.78;;;12.10;;
38621;SDS011;24380;51.132;5.360;2023-04-08T12:35:20;15.15;;;12.98;;
38621;SDS011;24380;51.132;5.360;2023-04-08T12:37:47;16.42;;;12.98;;
38621;SDS011;24380;51.132;5.360;2023-04-08T12:40:15;17.00;;;13.20;;
38621;SDS011;24380;51.132;5.360;2023-04-08T12:42:43;15.32;;;13.00;;
38621;SDS011;24380;51.132;5.360;2023-04-08T12:45:11;15.18;;;12.90;;
38621;SDS011;24380;51.132;5.360;2023-04-08T12:47:39;15.25;;;13.20;;
38621;SDS011;24380;51.132;5.360;2023-04-08T12:50:06;15.75;;;13.40;;
38621;SDS011;24380;51.132;5.360;2023-04-08T12:52:35;17.52;;;14.33;;
38621;SDS011;24380;51.132;5.360;2023-04-08T12:55:02;18.77;;;14.80;;
38621;SDS011;24380;51.132;5.360;2023-04-08T12:57:30;17.37;;;13.68;;
38621;SDS011;24380;51.132;5.360;2023-04-08T12:59:58;17.90;;;14.13;;
38621;SDS011;24380;51.132;5.360;2023-04-08T13:02:25;16.15;;;13.25;;
38621;SDS011;24380;51.132;5.360;2023-04-08T13:04:53;15.20;;;13.58;;
38621;SDS011;24380;51.132;5.360;2023-04-08T13:07:20;16.65;;;13.95;;
38621;SDS011;24380;51.132;5.360;2023-04-08T13:09:48;18.23;;;15.30;;
38621;SDS011;24380;51.132;5.360;2023-04-08T13:12:16;18.57;;;15.18;;
38621;SDS011;24380;51.132;5.360;2023-04-08T13:14:43;16.35;;;14.23;;
38621;SDS011;24380;51.132;5.360;2023-04-08T13:17:11;15.20;;;13.53;;
38621;SDS011;24380;51.132;5.360;2023-04-08T13:19:38;18.48;;;15.48;;
38621;SDS011;24380;51.132;5.360;2023-04-08T13:22:06;19.77;;;15.53;;
38621;SDS011;24380;51.132;5.360;2023-04-08T13:24:33;21.57;;;17.07;;
38621;SDS011;24380;51.132;5.360;2023-04-08T13:27:01;17.95;;;14.63;;
38621;SDS011;24380;51.132;5.360;2023-04-08T13:29:28;18.87;;;15.30;;
38621;SDS011;24380;51.132;5.360;2023-04-08T13:31:56;18.15;;;15.00;;
38621;SDS011;24380;51.132;5.360;2023-04-08T13:34:24;17.07;;;14.80;;
38621;SDS011;24380;51.132;5.360;2023-04-08T13:36:51;18.23;;;15.25;;
38621;SDS011;24380;51.132;5.360;2023-04-08T13:39:19;18.12;;;15.30;;
38621;SDS011;24380;51.132;5.360;2023-04-08T13:41:46;17.15;;;14.90;;
38621;SDS011;24380;51.132;5.360;2023-04-08T13:44:18;18.07;;;14.53;;
38621;SDS011;24380;51.132;5.360;2023-04-08T13:49:13;17.60;;;15.08;;
38621;SDS011;24380;51.132;5.360;2023-04-08T13:51:40;15.78;;;13.43;;
38621;SDS011;24380;51.132;5.360;2023-04-08T13:54:08;14.35;;;11.93;;
38621;SDS011;24380;51.132;5.360;2023-04-08T13:56:36;14.38;;;11.78;;
38621;SDS011;24380;51.132;5.360;2023-04-08T13:59:03;15.05;;;12.47;;
38621;SDS011;24380;51.132;5.360;2023-04-08T14:01:32;14.20;;;12.73;;
38621;SDS011;24380;51.132;5.360;2023-04-08T14:03:59;15.45;;;12.58;;
38621;SDS011;24380;51.132;5.360;2023-04-08T14:06:27;16.37;;;12.65;;
38621;SDS011;24380;51.132;5.360;2023-04-08T14:08:54;15.03;;;13.05;;
38621;SDS011;24380;51.132;5.360;2023-04-08T14:11:22;16.37;;;13.45;;
38621;SDS011;24380;51.132;5.360;2023-04-08T14:13:50;15.55;;;12.25;;
38621;SDS011;24380;51.132;5.360;2023-04-08T14:16:19;13.70;;;11.57;;
38621;SDS011;24380;51.132;5.360;2023-04-08T14:18:47;14.30;;;11.70;;
38621;SDS011;24380;51.132;5.360;2023-04-08T14:21:15;14.80;;;11.60;;
38621;SDS011;24380;51.132;5.360;2023-04-08T14:23:43;13.80;;;11.60;;
38621;SDS011;24380;51.132;5.360;2023-04-08T14:26:11;12.95;;;11.30;;
38621;SDS011;24380;51.132;5.360;2023-04-08T14:28:39;13.60;;;11.30;;
38621;SDS011;24380;51.132;5.360;2023-04-08T14:31:06;13.62;;;11.65;;
38621;SDS011;24380;51.132;5.360;2023-04-08T14:33:34;14.73;;;12.10;;
38621;SDS011;24380;51.132;5.360;2023-04-08T14:36:03;13.53;;;11.15;;
38621;SDS011;24380;51.132;5.360;2023-04-08T14:38:31;14.43;;;11.15;;
38621;SDS011;24380;51.132;5.360;2023-04-08T14:40:58;14.18;;;11.68;;
38621;SDS011;24380;51.132;5.360;2023-04-08T14:43:26;15.08;;;11.57;;
38621;SDS011;24380;51.132;5.360;2023-04-08T14:45:53;13.50;;;11.80;;
38621;SDS011;24380;51.132;5.360;2023-04-08T14:48:21;13.62;;;11.43;;
38621;SDS011;24380;51.132;5.360;2023-04-08T14:50:50;17.92;;;11.05;;
38621;SDS011;24380;51.132;5.360;2023-04-08T14:53:18;13.72;;;10.98;;